This is the latest recevied weather packets stored in our database for station/object DH4SBM. If no packets are shown the sender has not sent any weather packets the latest 10 day(s).
| Time | Temp. | Humidity | Pressure | Rain* | Wind** | Luminosity | Snow |
|---|---|---|---|---|---|---|---|
| 1788474345 | 21.11° C | 62% | 1021.5 hPa | 0 mm | - | 0 W/m² | - |
| 1788471344 | 21.67° C | 60% | 1021.5 hPa | 0 mm | - | 0 W/m² | - |
| 1788470744 | 21.67° C | 60% | 1021.6 hPa | 0 mm | - | 0 W/m² | - |
| 1788470143 | 21.67° C | 60% | 1021.5 hPa | 0 mm | - | 0 W/m² | - |
| 1788468943 | 21.67° C | 60% | 1021.8 hPa | 0 mm | - | 0 W/m² | - |
| 1788467743 | 22.22° C | 59% | 1021.6 hPa | 0 mm | - | 0 W/m² | - |
| 1788467143 | 22.22° C | 59% | 1021.6 hPa | 0 mm | - | 0 W/m² | - |
| 1788465942 | 22.22° C | 59% | 1021.4 hPa | 0 mm | - | 0 W/m² | - |
| 1788465342 | 22.22° C | 59% | 1021.6 hPa | 0 mm | - | 0 W/m² | - |
| 1788464744 | 22.22° C | 59% | 1021.6 hPa | 0 mm | - | 0 W/m² | - |
| 1788464144 | 22.22° C | 58% | 1021.7 hPa | 0 mm | - | 0 W/m² | - |
| 1788463543 | 22.22° C | 58% | 1021.7 hPa | 0 mm | - | 0 W/m² | - |
| 1788450182 | 25° C | 47% | 1020.9 hPa | 0 mm | - | 109 W/m² | - |
| 1788447183 | 25.56° C | 48% | 1021.4 hPa | 0 mm | - | 139 W/m² | - |
| 1788446583 | 25.56° C | 48% | 1021.4 hPa | 0 mm | - | 199 W/m² | - |
| 1788445983 | 25.56° C | 48% | 1021.3 hPa | 0 mm | - | 302 W/m² | - |
| 1788444182 | 25.56° C | 48% | 1021.3 hPa | 0 mm | - | 320 W/m² | - |
| 1788443582 | 25.56° C | 48% | 1021.4 hPa | 0 mm | - | 540 W/m² | - |
| 1788441181 | 25.56° C | 48% | 1021.7 hPa | 0 mm | - | 703 W/m² | - |
| 1788438782 | 24.44° C | 50% | 1021.8 hPa | 0 mm | - | 339 W/m² | - |
| 1788437580 | 24.44° C | 51% | 1022 hPa | 0 mm | - | 429 W/m² | - |
| 1788433981 | 22.78° C | 54% | 1022.6 hPa | 0 mm | - | 429 W/m² | - |
| 1788432782 | 22.78° C | 54% | 1022.7 hPa | 0 mm | - | 429 W/m² | - |
| 1788431581 | 22.78° C | 54% | 1023 hPa | 0 mm | - | 429 W/m² | - |
| 1788430981 | 22.78° C | 54% | 1023.2 hPa | 0 mm | - | 429 W/m² | - |
* Rain latest hour (hover to see other rain measurements)
** Current wind speed in m/s (hover to see current wind gust speed)